Rockford, MI (49341)

9:14 PM EST on January 26, 2015 (GMT -0500)
APRSWXNET Rockford MI US | Change Station
CLOSE
Current Station
Personal Weather Station
Location: Cannonsburg, MI
Elevation: 875 ft
Nearby Weather Stations

Elev 875 ft 43.09 °N, 85.47 °W | Updated 36 minutes ago

Overcast
Overcast
18 °F
Feels Like 18 °F
N
0
Wind Variable Wind from East
Gusts 0.0 mph

Today
High -- | Low -- °F
--% Chance of Precip.
Yesterday
High -- | Low -- °F
Precip. -- in
8:03 AM 5:46 PM
Waxing Crescent, 49% visible
Pressure 30.00 in
Visibility 10.0 miles
Clouds Scattered Clouds 6000 ft
Mostly Cloudy 9500 ft
Overcast 12000 ft
Windchill 18 °F
Dew Point 9 °F
Humidity 67%
Rainfall -999.00 in
Snow Depth Not available.
UV 0 out of 12
Pollen .10 out of 12
Air Quality Not available.
Flu Activity Not available.
METAR KGRR 270153Z 08006KT 10SM SCT060 BKN095 OVC120 M07/M14 A2995 RMK AO2 SLP157 T10671139

More Conditions Fewer Conditions

Pressure 30.00 in
Visibility 10.0 miles
Clouds Scattered Clouds 6000 ft
Mostly Cloudy 9500 ft
Overcast 12000 ft
Windchill 18 °F
Dew Point 9 °F
Humidity 67%
Rainfall -999.00 in
Snow Depth Not available.
UV 0 out of 12
Pollen .10 out of 12
Air Quality Not available.
Flu Activity Not available.
METAR KGRR 270153Z 08006KT 10SM SCT060 BKN095 OVC120 M07/M14 A2995 RMK AO2 SLP157 T10671139

More Conditions Fewer Conditions

10-Day Weather Forecast

Almanac

Astronomy

Jan. 26, 2015 Rise Set
Actual Time
Civil Twilight
Nautical Twilight
Astronomical Twilight
Moon
Length of Visible Light
Length of Day
Tomorrow will be .
, % of the Moon is Illuminated

Today's Extremes

State Highs State Lows

Community

WunderPhotos

Upload Photos

1,790,475 photos uploaded!

WunderBlogs® & News

Nearby

Air Quality

  Air Quality AQ Index Pollutant
Not available.

Snow Depth

Station Depth Elevation

Earthquake Activity

City Distance Mag. Time & Date
Minimum magnitude displayed is 2.5.

Coastal Water Temperatures

Place Temperature

Nearby Weather Stations